Terminal Aerodrome Forecast
Issued by NWS Bismarck, ND

Home | Current Version | Previous Version | Text Only | Print | Product List | Glossary Off
Versions: 1 2 3 4 5 6 7 8 9 10 11 12 13 14 15 16 17 18 19 20 21 22

000
FTUS43 KBIS 030341 AAE
TAFBIS
TAF AMD
KBIS 030341Z 0304/0324 06005KT P6SM BKN025
     FM030500 04008KT P6SM OVC015
     FM031400 02012KT P6SM OVC025=

USA.gov is the U.S. government's official web portal to all federal, state and local government web resources and services.